createdAt,value
2019-01-09T00:00:01.302Z,3.90
2019-01-09T00:02:34.049Z,4.00
2019-01-09T00:05:05.377Z,3.90
2019-01-09T00:07:36.677Z,4.00
2019-01-09T00:10:07.871Z,4.00
2019-01-09T00:12:38.834Z,4.00
2019-01-09T00:15:09.859Z,4.00
2019-01-09T00:17:40.937Z,4.00
2019-01-09T00:20:12.042Z,4.00
2019-01-09T00:22:43.213Z,4.00
2019-01-09T00:25:14.303Z,4.10
2019-01-09T00:27:45.237Z,4.00
2019-01-09T00:30:16.346Z,4.00
2019-01-09T00:32:47.451Z,4.00
2019-01-09T00:35:18.521Z,4.00
2019-01-09T00:37:49.529Z,4.00
2019-01-09T00:40:20.720Z,4.00
2019-01-09T00:42:51.919Z,4.00
2019-01-09T00:45:22.937Z,4.10
2019-01-09T00:47:54.020Z,4.10
2019-01-09T00:50:25.040Z,4.00
2019-01-09T00:52:57.158Z,4.10
2019-01-09T00:55:28.274Z,4.00
2019-01-09T00:57:59.495Z,4.00
2019-01-09T01:00:30.664Z,4.00
2019-01-09T01:03:42.865Z,4.00
2019-01-09T01:07:03.565Z,4.00
2019-01-09T01:10:23.239Z,4.00
2019-01-09T01:13:40.971Z,4.00
2019-01-09T01:17:09.237Z,4.00
2019-01-09T01:20:36.420Z,4.00
2019-01-09T01:24:11.535Z,4.10
2019-01-09T01:27:25.557Z,4.10
2019-01-09T01:30:48.964Z,4.00
2019-01-09T01:34:09.278Z,4.00
2019-01-09T01:37:39.996Z,4.00
2019-01-09T01:40:26.617Z,4.00
2019-01-09T01:43:30.892Z,4.00
2019-01-09T01:46:50.186Z,4.00
2019-01-09T01:50:14.902Z,4.00
2019-01-09T01:53:36.080Z,4.00
2019-01-09T01:57:07.658Z,3.90
2019-01-09T02:00:37.614Z,3.90
2019-01-09T02:04:10.173Z,3.90
2019-01-09T02:08:02.588Z,3.80
2019-01-09T02:11:21.954Z,3.80
2019-01-09T02:14:27.184Z,3.80
2019-01-09T02:17:59.736Z,3.90
2019-01-09T02:21:25.217Z,3.80
2019-01-09T02:24:59.656Z,3.90
2019-01-09T02:28:28.626Z,3.90
2019-01-09T02:31:34.092Z,3.90
2019-01-09T02:34:05.009Z,3.90
2019-01-09T02:36:35.927Z,3.90
2019-01-09T02:39:07.521Z,3.90
2019-01-09T02:41:38.389Z,3.90
2019-01-09T02:44:09.374Z,3.90
2019-01-09T02:46:40.216Z,3.90
2019-01-09T02:49:11.239Z,3.90
2019-01-09T02:51:42.245Z,3.90
2019-01-09T02:54:13.184Z,3.90
2019-01-09T02:56:44.030Z,3.90
2019-01-09T02:59:15.020Z,3.90
2019-01-09T03:01:45.915Z,3.90
2019-01-09T03:04:16.898Z,3.80
2019-01-09T03:06:47.895Z,3.90
2019-01-09T03:09:18.793Z,3.90
2019-01-09T03:11:49.689Z,3.90
2019-01-09T03:14:20.769Z,3.90
2019-01-09T03:16:51.768Z,3.90
2019-01-09T03:19:22.664Z,3.90
2019-01-09T03:21:53.551Z,3.90
2019-01-09T03:24:24.744Z,3.90
2019-01-09T03:26:55.725Z,3.90
2019-01-09T03:29:26.824Z,3.90
2019-01-09T03:31:58.035Z,3.90
2019-01-09T03:34:29.095Z,3.90
2019-01-09T03:37:01.100Z,3.90
2019-01-09T03:39:33.141Z,3.90
2019-01-09T03:42:04.287Z,3.90
2019-01-09T03:44:35.427Z,3.90
2019-01-09T03:47:06.436Z,3.80
2019-01-09T03:49:39.249Z,3.90
2019-01-09T03:52:10.280Z,3.80
2019-01-09T03:54:41.521Z,3.80
2019-01-09T03:57:12.337Z,3.80
2019-01-09T03:59:43.322Z,3.80
2019-01-09T04:02:14.162Z,3.80
2019-01-09T04:04:45.115Z,3.80
2019-01-09T04:07:16.068Z,3.80
2019-01-09T04:09:46.986Z,3.80
2019-01-09T04:12:17.935Z,3.80
2019-01-09T04:14:48.984Z,3.80
2019-01-09T04:17:19.859Z,3.80
2019-01-09T04:19:50.756Z,3.80
2019-01-09T04:22:21.635Z,3.80
2019-01-09T04:24:52.514Z,3.80
2019-01-09T04:27:23.365Z,3.90
2019-01-09T04:29:54.247Z,3.80
2019-01-09T04:32:25.181Z,3.90
2019-01-09T04:34:56.075Z,3.90
2019-01-09T04:37:27.005Z,3.90
2019-01-09T04:39:58.033Z,3.80
2019-01-09T04:42:28.958Z,3.70
2019-01-09T04:44:59.873Z,3.60
2019-01-09T04:47:30.768Z,3.60
2019-01-09T04:50:01.811Z,3.60
2019-01-09T04:52:32.807Z,3.70
2019-01-09T04:55:04.090Z,3.80
2019-01-09T04:57:34.985Z,3.70
2019-01-09T05:00:06.602Z,3.70
2019-01-09T05:02:37.473Z,3.80
2019-01-09T05:05:08.835Z,3.80
2019-01-09T05:07:41.801Z,3.80
2019-01-09T05:10:12.947Z,3.80
2019-01-09T05:12:44.681Z,3.80
2019-01-09T05:15:16.465Z,3.80
2019-01-09T05:17:47.362Z,3.80
2019-01-09T05:20:21.415Z,3.80
2019-01-09T05:22:52.350Z,3.80
2019-01-09T05:25:23.569Z,3.80
2019-01-09T05:27:54.478Z,3.80
2019-01-09T05:30:25.369Z,3.80
2019-01-09T05:32:56.972Z,3.80
2019-01-09T05:35:27.953Z,3.80
2019-01-09T05:37:59.728Z,3.70
2019-01-09T05:40:30.827Z,3.80
2019-01-09T05:43:01.693Z,3.70
2019-01-09T05:45:32.609Z,3.80
2019-01-09T05:48:03.557Z,3.80
2019-01-09T05:50:34.461Z,3.80
2019-01-09T05:53:05.424Z,3.80
2019-01-09T05:55:36.315Z,3.80
2019-01-09T05:58:07.348Z,3.80
2019-01-09T06:00:38.302Z,3.70
2019-01-09T06:03:09.297Z,3.70
2019-01-09T06:05:41.708Z,3.70
2019-01-09T06:08:12.641Z,3.70
2019-01-09T06:10:43.714Z,3.70
2019-01-09T06:13:14.653Z,3.60
2019-01-09T06:15:45.558Z,3.60
2019-01-09T06:18:16.400Z,3.50
2019-01-09T06:20:47.504Z,3.50
2019-01-09T06:23:18.546Z,3.50
2019-01-09T06:25:49.506Z,3.40
2019-01-09T06:28:20.361Z,3.50
2019-01-09T06:30:51.437Z,3.50
2019-01-09T06:33:23.602Z,3.50
2019-01-09T06:35:54.660Z,3.50
2019-01-09T06:38:25.617Z,3.50
2019-01-09T06:40:56.647Z,3.60
2019-01-09T06:43:27.671Z,3.60
2019-01-09T06:45:58.735Z,3.60
2019-01-09T06:48:29.767Z,3.60
2019-01-09T06:51:01.574Z,3.60
2019-01-09T06:53:32.780Z,3.60
2019-01-09T06:56:04.099Z,3.60
2019-01-09T06:58:35.082Z,3.60
2019-01-09T07:01:06.137Z,3.60
2019-01-09T07:03:37.078Z,3.60
2019-01-09T07:06:09.689Z,3.70
2019-01-09T07:08:40.834Z,3.70
2019-01-09T07:11:11.798Z,3.70
2019-01-09T07:13:45.889Z,3.80
2019-01-09T07:16:17.200Z,3.80
2019-01-09T07:18:48.123Z,3.80
2019-01-09T07:21:19.109Z,3.90
2019-01-09T07:23:50.011Z,3.90
2019-01-09T07:26:21.191Z,3.90
2019-01-09T07:28:52.194Z,3.80
2019-01-09T07:31:23.098Z,3.80
2019-01-09T07:33:53.950Z,3.80
2019-01-09T07:36:25.037Z,3.90
2019-01-09T07:38:56.033Z,3.90
2019-01-09T07:41:27.080Z,3.90
2019-01-09T07:43:58.016Z,3.90
2019-01-09T07:46:29.060Z,3.90
2019-01-09T07:49:00.022Z,3.90
2019-01-09T07:51:30.933Z,3.90
2019-01-09T07:54:01.793Z,3.90
2019-01-09T07:56:33.020Z,3.90
2019-01-09T07:59:04.010Z,3.90
2019-01-09T08:01:35.022Z,3.80
2019-01-09T08:04:07.010Z,3.90
2019-01-09T08:06:37.908Z,3.90
2019-01-09T08:09:12.128Z,3.90
2019-01-09T08:11:43.210Z,3.90
2019-01-09T08:14:14.203Z,3.90
2019-01-09T08:16:48.298Z,3.90
2019-01-09T08:19:20.430Z,3.90
2019-01-09T08:21:51.418Z,3.90
2019-01-09T08:24:22.351Z,3.90
2019-01-09T08:26:53.392Z,3.90
2019-01-09T08:29:54.268Z,3.90
2019-01-09T08:32:27.075Z,3.90
2019-01-09T08:34:58.063Z,3.90
2019-01-09T08:37:29.438Z,3.90
2019-01-09T08:40:01.261Z,3.90
2019-01-09T08:42:32.506Z,4.00
2019-01-09T08:45:04.098Z,3.90
2019-01-09T08:47:36.902Z,3.90
2019-01-09T08:50:09.440Z,3.90
2019-01-09T08:52:40.697Z,3.90
2019-01-09T08:55:11.683Z,3.90
2019-01-09T08:57:42.644Z,4.00
2019-01-09T09:00:13.940Z,3.90
2019-01-09T09:02:45.259Z,4.00
2019-01-09T09:05:16.258Z,3.90
2019-01-09T09:07:58.709Z,3.90
2019-01-09T09:10:29.706Z,3.90
2019-01-09T09:13:00.729Z,3.90
2019-01-09T09:15:31.713Z,3.90
2019-01-09T09:18:02.773Z,3.90
2019-01-09T09:20:33.764Z,3.90
2019-01-09T09:23:04.706Z,4.00
2019-01-09T09:25:35.688Z,4.00
2019-01-09T09:28:06.789Z,4.00
2019-01-09T09:30:39.315Z,3.90
2019-01-09T09:33:10.314Z,3.70
2019-01-09T09:35:41.312Z,3.60
2019-01-09T09:38:20.737Z,3.60
2019-01-09T09:40:58.958Z,3.60
2019-01-09T09:47:27.740Z,3.50
2019-01-09T09:50:01.159Z,3.30
2019-01-09T09:52:32.937Z,3.20
2019-01-09T09:55:12.847Z,3.00
2019-01-09T10:01:02.799Z,3.00
2019-01-09T10:03:33.801Z,3.10
2019-01-09T10:06:05.150Z,3.10
2019-01-09T10:08:36.289Z,3.10
2019-01-09T10:11:07.706Z,3.20
2019-01-09T10:13:39.150Z,3.20
2019-01-09T10:16:11.561Z,3.30
2019-01-09T10:18:42.667Z,3.50
2019-01-09T10:21:13.892Z,3.60
2019-01-09T10:23:45.340Z,3.70
2019-01-09T10:26:16.336Z,3.80
2019-01-09T10:28:47.444Z,3.90
2019-01-09T10:31:18.731Z,4.00
2019-01-09T10:33:49.601Z,4.00
2019-01-09T10:36:20.723Z,4.00
2019-01-09T10:38:51.827Z,3.90
2019-01-09T10:41:22.840Z,3.80
2019-01-09T10:43:53.753Z,3.80
2019-01-09T10:46:24.714Z,3.80
2019-01-09T10:48:55.839Z,3.90
2019-01-09T10:51:26.787Z,4.00
2019-01-09T10:53:57.769Z,4.00
2019-01-09T10:56:30.070Z,4.00
2019-01-09T10:59:01.079Z,4.00
2019-01-09T11:01:32.039Z,4.00
2019-01-09T11:04:03.224Z,4.00
2019-01-09T11:06:34.175Z,4.00
2019-01-09T11:09:08.829Z,4.00
2019-01-09T11:11:41.171Z,3.90
2019-01-09T11:14:13.710Z,3.70
2019-01-09T11:16:45.016Z,3.40
2019-01-09T11:19:16.319Z,3.30
2019-01-09T11:21:49.748Z,3.20
2019-01-09T11:24:20.906Z,3.30
2019-01-09T11:26:52.234Z,3.30
2019-01-09T11:29:23.229Z,3.30
2019-01-09T11:31:54.301Z,3.40
2019-01-09T11:34:25.411Z,3.50
2019-01-09T11:36:57.041Z,3.50
2019-01-09T11:39:28.283Z,3.50
2019-01-09T11:41:59.277Z,3.50
2019-01-09T11:44:30.185Z,3.60
2019-01-09T11:47:01.231Z,3.60
2019-01-09T11:49:32.411Z,3.70
2019-01-09T11:52:03.503Z,3.70
2019-01-09T11:54:34.460Z,3.70
2019-01-09T11:57:05.659Z,3.70
2019-01-09T11:59:36.511Z,3.60
2019-01-09T12:02:07.927Z,3.60
2019-01-09T12:04:39.013Z,3.60
2019-01-09T12:07:10.307Z,3.50
2019-01-09T12:09:41.320Z,3.40
2019-01-09T12:12:12.371Z,3.40
2019-01-09T12:14:43.646Z,3.40
2019-01-09T12:17:14.589Z,3.50
2019-01-09T12:19:45.491Z,3.50
2019-01-09T12:22:16.499Z,3.60
2019-01-09T12:24:47.459Z,3.60
2019-01-09T12:27:18.432Z,3.70
2019-01-09T12:29:49.344Z,3.70
2019-01-09T12:32:20.760Z,3.70
2019-01-09T12:34:52.083Z,3.80
2019-01-09T12:37:23.311Z,3.80
2019-01-09T12:39:55.271Z,3.80
2019-01-09T12:42:26.488Z,3.80
2019-01-09T12:45:00.416Z,3.80
2019-01-09T12:47:31.809Z,3.90
2019-01-09T12:50:02.960Z,3.80
2019-01-09T12:52:33.972Z,3.90
2019-01-09T12:55:05.884Z,3.80
2019-01-09T12:57:38.784Z,3.70
2019-01-09T13:00:16.514Z,3.70
2019-01-09T13:02:48.580Z,3.70
2019-01-09T13:05:19.774Z,3.60
2019-01-09T13:07:51.042Z,3.60
2019-01-09T13:10:21.993Z,3.60
2019-01-09T13:12:53.082Z,3.60
2019-01-09T13:15:24.109Z,3.60
2019-01-09T13:17:55.398Z,3.70
2019-01-09T13:20:26.292Z,3.60
2019-01-09T13:22:57.198Z,3.60
2019-01-09T13:25:28.151Z,3.50
2019-01-09T13:27:59.242Z,3.30
2019-01-09T13:30:30.524Z,3.20
2019-01-09T13:33:01.518Z,3.10
2019-01-09T13:35:32.668Z,3.20
2019-01-09T13:38:03.684Z,3.20
2019-01-09T13:40:34.820Z,3.30
2019-01-09T13:43:06.358Z,3.30
2019-01-09T13:45:37.384Z,3.30
2019-01-09T13:48:08.846Z,3.30
2019-01-09T13:50:41.004Z,3.40
2019-01-09T13:53:11.919Z,3.40
2019-01-09T13:55:46.803Z,3.50
2019-01-09T13:58:17.781Z,3.50
2019-01-09T14:00:48.941Z,3.60
2019-01-09T14:03:19.924Z,3.70
2019-01-09T14:05:50.868Z,3.70
2019-01-09T14:08:21.858Z,3.70
2019-01-09T14:10:53.037Z,3.60
2019-01-09T14:13:23.958Z,3.40
2019-01-09T14:15:55.170Z,3.40
2019-01-09T14:18:26.182Z,3.40
2019-01-09T14:20:57.154Z,3.40
2019-01-09T14:23:28.113Z,3.40
2019-01-09T14:25:59.048Z,3.50
2019-01-09T14:28:30.109Z,3.60
2019-01-09T14:31:00.990Z,3.70
2019-01-09T14:33:32.025Z,3.60
2019-01-09T14:36:03.010Z,3.60
2019-01-09T14:38:34.040Z,3.60
2019-01-09T14:41:06.062Z,3.70
2019-01-09T14:43:37.146Z,3.70
2019-01-09T14:46:08.129Z,3.70
2019-01-09T14:48:39.494Z,3.70
2019-01-09T14:51:10.608Z,3.60
2019-01-09T14:53:41.606Z,3.50
2019-01-09T14:56:14.379Z,3.50
2019-01-09T14:58:45.554Z,3.50
2019-01-09T15:01:19.802Z,3.50
2019-01-09T15:03:51.019Z,3.50
2019-01-09T15:06:22.366Z,3.50
2019-01-09T15:08:55.454Z,3.50
2019-01-09T15:11:27.302Z,3.50
2019-01-09T15:13:58.408Z,3.60
2019-01-09T15:16:29.401Z,3.60
2019-01-09T15:19:00.587Z,3.60
2019-01-09T15:21:32.654Z,3.60
2019-01-09T15:24:08.357Z,3.60
2019-01-09T15:26:36.707Z,3.60
2019-01-09T15:29:07.830Z,3.70
2019-01-09T15:31:38.813Z,3.70
2019-01-09T15:34:09.707Z,3.70
2019-01-09T15:36:40.757Z,3.70
2019-01-09T15:39:11.899Z,3.70
2019-01-09T15:41:42.741Z,3.70
2019-01-09T15:44:13.625Z,3.70
2019-01-09T15:46:44.741Z,3.60
2019-01-09T15:49:16.225Z,3.60
2019-01-09T15:51:47.177Z,3.60
2019-01-09T15:54:18.249Z,3.50
2019-01-09T15:56:50.089Z,3.50
2019-01-09T15:59:21.059Z,3.60
2019-01-09T16:01:51.924Z,3.60
2019-01-09T16:04:23.195Z,3.60
2019-01-09T16:06:55.990Z,3.60
2019-01-09T16:09:29.479Z,3.60
2019-01-09T16:12:01.337Z,3.70
2019-01-09T16:14:32.613Z,3.70
2019-01-09T16:17:04.217Z,3.70
2019-01-09T16:19:35.292Z,3.70
2019-01-09T16:22:06.569Z,3.70
2019-01-09T16:24:37.684Z,3.70
2019-01-09T16:27:08.579Z,3.70
2019-01-09T16:29:39.642Z,3.70
2019-01-09T16:32:10.719Z,3.70
2019-01-09T16:34:41.897Z,3.70
2019-01-09T16:37:12.810Z,3.70
2019-01-09T16:39:43.839Z,3.70
2019-01-09T16:42:14.867Z,3.60
2019-01-09T16:44:45.895Z,3.70
2019-01-09T16:47:16.920Z,3.70
2019-01-09T16:49:47.987Z,3.70
2019-01-09T16:52:18.983Z,3.70
2019-01-09T16:54:49.941Z,3.70
2019-01-09T16:57:20.910Z,3.80
2019-01-09T16:59:52.094Z,3.80
2019-01-09T17:02:23.143Z,3.70
2019-01-09T17:04:54.154Z,3.70
2019-01-09T17:07:25.191Z,3.70
2019-01-09T17:09:56.232Z,3.70
2019-01-09T17:12:27.448Z,3.70
2019-01-09T17:14:58.556Z,3.70
2019-01-09T17:17:30.868Z,3.70
2019-01-09T17:20:04.879Z,3.80
2019-01-09T17:22:36.143Z,3.80
2019-01-09T17:25:09.468Z,3.80
2019-01-09T17:27:43.318Z,3.70
2019-01-09T17:30:20.150Z,3.70
2019-01-09T17:32:51.311Z,3.70
2019-01-09T17:35:22.373Z,3.70
2019-01-09T17:37:53.501Z,3.70
2019-01-09T17:40:40.525Z,3.70
2019-01-09T17:43:03.457Z,3.70
2019-01-09T17:45:34.464Z,3.60
2019-01-09T17:48:06.003Z,3.70
2019-01-09T17:50:38.479Z,3.70
2019-01-09T17:53:09.437Z,3.60
2019-01-09T17:55:40.951Z,3.70
2019-01-09T17:58:12.137Z,3.70
2019-01-09T18:00:43.539Z,3.70
2019-01-09T18:03:16.843Z,3.70
2019-01-09T18:05:52.394Z,3.70
2019-01-09T18:08:25.077Z,3.60
2019-01-09T18:10:56.416Z,3.60
2019-01-09T18:13:27.375Z,3.60
2019-01-09T18:15:58.495Z,3.60
2019-01-09T18:18:29.524Z,3.60
2019-01-09T18:21:01.913Z,3.60
2019-01-09T18:23:33.126Z,3.60
2019-01-09T18:26:04.369Z,3.60
2019-01-09T18:28:35.498Z,3.60
2019-01-09T18:32:21.285Z,3.60
2019-01-09T18:35:07.854Z,3.60
2019-01-09T18:38:15.801Z,3.60
2019-01-09T18:41:29.681Z,3.60
2019-01-09T18:44:48.958Z,3.60
2019-01-09T18:48:11.403Z,3.60
2019-01-09T18:51:59.516Z,3.60
2019-01-09T18:54:30.648Z,3.60
2019-01-09T18:57:02.333Z,3.60
2019-01-09T18:59:33.657Z,3.60
2019-01-09T19:04:32.137Z,3.60
2019-01-09T19:07:03.457Z,3.60
2019-01-09T19:09:34.572Z,3.60
2019-01-09T19:12:05.888Z,3.50
2019-01-09T19:14:38.282Z,3.50
2019-01-09T19:17:09.425Z,3.40
2019-01-09T19:19:41.442Z,3.40
2019-01-09T19:22:12.697Z,3.50
2019-01-09T19:24:43.778Z,3.50
2019-01-09T19:27:14.761Z,3.50
2019-01-09T19:29:48.004Z,3.50
2019-01-09T19:32:28.222Z,3.50
2019-01-09T19:34:59.635Z,3.50
2019-01-09T19:37:30.931Z,3.50
2019-01-09T19:40:04.950Z,3.50
2019-01-09T19:42:36.356Z,3.50
2019-01-09T19:45:08.356Z,3.50
2019-01-09T19:47:40.136Z,3.40
2019-01-09T19:50:15.374Z,3.30
2019-01-09T19:52:47.047Z,3.40
2019-01-09T19:55:18.348Z,3.40
2019-01-09T19:57:49.669Z,3.40
2019-01-09T20:00:24.061Z,3.40
2019-01-09T20:02:55.328Z,3.40
2019-01-09T20:05:26.513Z,3.40
2019-01-09T20:07:57.795Z,3.40
2019-01-09T20:10:29.177Z,3.30
2019-01-09T20:13:00.278Z,3.30
2019-01-09T20:15:31.580Z,3.30
2019-01-09T20:18:02.805Z,3.30
2019-01-09T20:20:34.062Z,3.30
2019-01-09T20:23:06.015Z,3.20
2019-01-09T20:25:37.559Z,3.20
2019-01-09T20:28:09.273Z,3.30
2019-01-09T20:30:41.002Z,3.20
2019-01-09T20:33:12.590Z,3.20
2019-01-09T20:35:43.869Z,3.20
2019-01-09T20:38:15.491Z,3.10
2019-01-09T20:41:05.375Z,3.10
2019-01-09T20:44:02.194Z,3.10
2019-01-09T20:47:03.543Z,3.10
2019-01-09T20:50:03.146Z,3.10
2019-01-09T20:52:40.175Z,3.10
2019-01-09T20:55:35.329Z,3.00
2019-01-09T20:58:12.189Z,3.00
2019-01-09T21:00:43.479Z,3.00
2019-01-09T21:03:19.082Z,2.90
2019-01-09T21:05:54.761Z,2.90
2019-01-09T21:08:26.185Z,2.90
2019-01-09T21:11:07.098Z,2.90
2019-01-09T21:13:38.322Z,2.90
2019-01-09T21:16:09.514Z,2.90
2019-01-09T21:18:40.568Z,2.80
2019-01-09T21:21:18.533Z,2.80
2019-01-09T21:23:50.674Z,2.80
2019-01-09T21:26:28.021Z,2.80
2019-01-09T21:29:03.042Z,2.80
2019-01-09T21:31:34.226Z,2.80
2019-01-09T21:34:05.505Z,2.70
2019-01-09T21:36:38.883Z,2.80
2019-01-09T21:39:11.123Z,2.70
2019-01-09T21:41:42.473Z,2.70
2019-01-09T21:44:16.044Z,2.80
2019-01-09T21:46:46.669Z,2.70
2019-01-09T21:49:18.938Z,2.70
2019-01-09T21:51:50.581Z,2.70
2019-01-09T21:54:22.053Z,2.70
2019-01-09T21:56:56.874Z,2.60
2019-01-09T21:59:29.360Z,2.70
2019-01-09T22:02:01.117Z,2.80
2019-01-09T22:04:32.814Z,2.80
2019-01-09T22:07:04.387Z,2.80
2019-01-09T22:09:35.560Z,2.80
2019-01-09T22:12:07.175Z,2.70
2019-01-09T22:14:38.275Z,2.70
2019-01-09T22:17:10.897Z,2.70
2019-01-09T22:19:43.565Z,2.60
2019-01-09T22:22:14.669Z,2.60
2019-01-09T22:24:45.663Z,2.60
2019-01-09T22:27:16.811Z,2.60
2019-01-09T22:29:47.944Z,2.60
2019-01-09T22:32:19.253Z,2.60
2019-01-09T22:34:51.586Z,2.50
2019-01-09T22:37:25.407Z,2.60
2019-01-09T22:39:56.355Z,2.60
2019-01-09T22:42:27.424Z,2.50
2019-01-09T22:44:58.397Z,2.50
2019-01-09T22:47:29.490Z,2.60
2019-01-09T22:50:00.858Z,2.60
2019-01-09T22:52:31.983Z,2.60
2019-01-09T22:55:03.158Z,2.50
2019-01-09T22:57:34.714Z,2.40
2019-01-09T23:00:40.916Z,2.50
2019-01-09T23:03:15.516Z,2.50
2019-01-09T23:05:46.856Z,2.50
2019-01-09T23:08:18.932Z,2.50
2019-01-09T23:10:55.113Z,2.50
2019-01-09T23:13:23.430Z,2.40
2019-01-09T23:15:57.974Z,2.50
2019-01-09T23:18:28.982Z,2.50
2019-01-09T23:21:00.014Z,2.50
2019-01-09T23:23:34.374Z,2.50
2019-01-09T23:26:06.445Z,2.50
2019-01-09T23:28:38.333Z,2.50
2019-01-09T23:31:09.992Z,2.40
2019-01-09T23:33:41.462Z,2.40
2019-01-09T23:36:12.849Z,2.50
2019-01-09T23:38:44.052Z,2.50
2019-01-09T23:41:18.424Z,2.50
2019-01-09T23:43:49.688Z,2.40
2019-01-09T23:46:20.828Z,2.40
2019-01-09T23:48:51.857Z,2.40
2019-01-09T23:51:22.839Z,2.50
2019-01-09T23:53:53.776Z,2.40
2019-01-09T23:56:24.816Z,2.30
2019-01-09T23:58:55.796Z,2.30
